sensor_id;sensor_type;location;lat;lon;timestamp;pressure;altitude;pressure_sealevel;temperature;humidity
35806;BME280;21925;44.608;11.580;2022-07-24T00:01:57;101458.94;;;29.02;57.98
35806;BME280;21925;44.608;11.580;2022-07-24T00:04:22;101464.13;;;29.03;57.45
35806;BME280;21925;44.608;11.580;2022-07-24T00:06:48;101446.28;;;29.06;57.45
35806;BME280;21925;44.608;11.580;2022-07-24T00:09:14;101468.53;;;29.04;57.10
35806;BME280;21925;44.608;11.580;2022-07-24T00:11:40;101466.03;;;29.06;57.05
35806;BME280;21925;44.608;11.580;2022-07-24T00:14:05;101448.06;;;29.00;57.12
35806;BME280;21925;44.608;11.580;2022-07-24T00:16:31;101462.53;;;28.77;58.80
35806;BME280;21925;44.608;11.580;2022-07-24T00:18:56;101413.69;;;28.55;57.45
35806;BME280;21925;44.608;11.580;2022-07-24T00:21:22;101441.44;;;28.82;57.41
35806;BME280;21925;44.608;11.580;2022-07-24T00:23:47;101418.88;;;28.69;57.38
35806;BME280;21925;44.608;11.580;2022-07-24T00:26:13;101454.06;;;28.77;57.53
35806;BME280;21925;44.608;11.580;2022-07-24T00:29:41;101461.31;;;28.78;58.19
35806;BME280;21925;44.608;11.580;2022-07-24T00:32:09;101457.72;;;28.90;57.31
35806;BME280;21925;44.608;11.580;2022-07-24T00:34:35;101441.69;;;28.87;57.41
35806;BME280;21925;44.608;11.580;2022-07-24T00:37:00;101440.41;;;29.01;56.67
35806;BME280;21925;44.608;11.580;2022-07-24T00:39:26;101468.78;;;28.97;57.62
35806;BME280;21925;44.608;11.580;2022-07-24T00:41:51;101461.66;;;28.68;58.79
35806;BME280;21925;44.608;11.580;2022-07-24T00:46:08;101451.16;;;28.19;60.16
35806;BME280;21925;44.608;11.580;2022-07-24T00:48:33;101472.03;;;28.21;60.34
35806;BME280;21925;44.608;11.580;2022-07-24T00:50:59;101483.25;;;27.96;61.09
35806;BME280;21925;44.608;11.580;2022-07-24T00:53:24;101474.66;;;27.87;62.07
35806;BME280;21925;44.608;11.580;2022-07-24T00:55:50;101484.41;;;28.11;62.85
35806;BME280;21925;44.608;11.580;2022-07-24T00:58:15;101488.47;;;28.10;62.98
35806;BME280;21925;44.608;11.580;2022-07-24T01:00:41;101503.00;;;28.09;63.37
35806;BME280;21925;44.608;11.580;2022-07-24T01:03:07;101500.16;;;27.96;64.37
35806;BME280;21925;44.608;11.580;2022-07-24T01:05:32;101512.78;;;27.92;64.79
35806;BME280;21925;44.608;11.580;2022-07-24T01:07:58;101508.25;;;28.23;63.59
35806;BME280;21925;44.608;11.580;2022-07-24T01:10:23;101483.59;;;28.39;62.47
35806;BME280;21925;44.608;11.580;2022-07-24T01:12:49;101494.84;;;28.27;62.40
35806;BME280;21925;44.608;11.580;2022-07-24T01:15:15;101495.97;;;28.29;62.09
35806;BME280;21925;44.608;11.580;2022-07-24T01:17:42;101510.19;;;28.26;62.52
35806;BME280;21925;44.608;11.580;2022-07-24T01:20:09;101519.53;;;28.23;63.25
35806;BME280;21925;44.608;11.580;2022-07-24T01:22:35;101483.59;;;28.39;62.03
35806;BME280;21925;44.608;11.580;2022-07-24T01:25:01;101495.41;;;28.46;62.82
35806;BME280;21925;44.608;11.580;2022-07-24T01:27:26;101519.44;;;28.26;63.40
35806;BME280;21925;44.608;11.580;2022-07-24T01:29:52;101502.97;;;28.25;63.27
35806;BME280;21925;44.608;11.580;2022-07-24T01:32:18;101489.22;;;28.39;62.73
35806;BME280;21925;44.608;11.580;2022-07-24T01:34:43;101481.41;;;28.30;61.91
35806;BME280;21925;44.608;11.580;2022-07-24T01:37:09;101488.59;;;28.19;62.75
35806;BME280;21925;44.608;11.580;2022-07-24T01:39:35;101495.78;;;28.08;63.65
35806;BME280;21925;44.608;11.580;2022-07-24T01:42:01;101476.00;;;28.24;63.24
35806;BME280;21925;44.608;11.580;2022-07-24T01:44:26;101493.59;;;28.27;65.63
35806;BME280;21925;44.608;11.580;2022-07-24T01:46:52;101508.44;;;28.16;64.10
35806;BME280;21925;44.608;11.580;2022-07-24T01:49:17;101517.13;;;28.09;64.44
35806;BME280;21925;44.608;11.580;2022-07-24T01:51:43;101503.69;;;28.13;63.59
35806;BME280;21925;44.608;11.580;2022-07-24T01:54:08;101501.84;;;28.22;64.11
35806;BME280;21925;44.608;11.580;2022-07-24T01:56:34;101480.09;;;27.94;63.38
35806;BME280;21925;44.608;11.580;2022-07-24T01:58:59;101491.78;;;27.80;65.23
35806;BME280;21925;44.608;11.580;2022-07-24T02:01:26;101500.94;;;27.97;64.19
35806;BME280;21925;44.608;11.580;2022-07-24T02:03:52;101492.19;;;27.79;64.31
35806;BME280;21925;44.608;11.580;2022-07-24T02:06:18;101468.63;;;27.73;64.46
35806;BME280;21925;44.608;11.580;2022-07-24T02:08:44;101505.56;;;27.91;65.08
35806;BME280;21925;44.608;11.580;2022-07-24T02:11:09;101505.66;;;27.87;64.88
35806;BME280;21925;44.608;11.580;2022-07-24T02:13:35;101487.22;;;27.70;65.11
35806;BME280;21925;44.608;11.580;2022-07-24T02:16:02;101506.78;;;27.90;64.91
35806;BME280;21925;44.608;11.580;2022-07-24T02:18:28;101493.63;;;27.71;65.73
35806;BME280;21925;44.608;11.580;2022-07-24T02:20:53;101487.34;;;27.67;64.56
35806;BME280;21925;44.608;11.580;2022-07-24T02:23:19;101491.91;;;27.61;65.68
35806;BME280;21925;44.608;11.580;2022-07-24T02:25:46;101504.03;;;27.74;65.41
35806;BME280;21925;44.608;11.580;2022-07-24T02:28:12;101510.13;;;27.72;64.55
35806;BME280;21925;44.608;11.580;2022-07-24T02:30:38;101507.22;;;27.60;66.12
35806;BME280;21925;44.608;11.580;2022-07-24T02:33:04;101489.56;;;27.43;65.69
35806;BME280;21925;44.608;11.580;2022-07-24T02:35:29;101497.75;;;27.54;66.72
35806;BME280;21925;44.608;11.580;2022-07-24T02:37:55;101500.03;;;27.43;66.51
35806;BME280;21925;44.608;11.580;2022-07-24T02:40:20;101507.38;;;27.41;66.55
35806;BME280;21925;44.608;11.580;2022-07-24T02:42:46;101459.97;;;27.07;65.26
35806;BME280;21925;44.608;11.580;2022-07-24T02:45:12;101513.78;;;27.41;64.83
35806;BME280;21925;44.608;11.580;2022-07-24T02:47:49;101513.31;;;27.42;65.34
35806;BME280;21925;44.608;11.580;2022-07-24T02:50:16;101521.94;;;27.51;64.34
35806;BME280;21925;44.608;11.580;2022-07-24T02:52:42;101523.47;;;27.40;65.06
35806;BME280;21925;44.608;11.580;2022-07-24T02:55:08;101513.63;;;27.32;65.47
35806;BME280;21925;44.608;11.580;2022-07-24T02:57:35;101515.22;;;27.17;66.27
35806;BME280;21925;44.608;11.580;2022-07-24T03:00:00;101521.22;;;27.03;67.43
35806;BME280;21925;44.608;11.580;2022-07-24T03:02:26;101518.38;;;27.19;66.45
35806;BME280;21925;44.608;11.580;2022-07-24T03:04:51;101517.69;;;27.15;65.98
35806;BME280;21925;44.608;11.580;2022-07-24T03:07:17;101536.41;;;27.22;66.60
35806;BME280;21925;44.608;11.580;2022-07-24T03:09:43;101504.56;;;26.93;67.18
35806;BME280;21925;44.608;11.580;2022-07-24T03:12:08;101515.31;;;27.14;66.35
35806;BME280;21925;44.608;11.580;2022-07-24T03:14:34;101524.22;;;27.12;66.67
35806;BME280;21925;44.608;11.580;2022-07-24T03:16:59;101522.63;;;27.11;66.17
35806;BME280;21925;44.608;11.580;2022-07-24T03:19:25;101526.84;;;27.19;66.03
35806;BME280;21925;44.608;11.580;2022-07-24T03:21:50;101516.44;;;27.16;65.55
35806;BME280;21925;44.608;11.580;2022-07-24T03:24:16;101527.34;;;27.14;65.39
35806;BME280;21925;44.608;11.580;2022-07-24T03:26:41;101526.47;;;27.17;64.86
35806;BME280;21925;44.608;11.580;2022-07-24T03:29:07;101531.25;;;27.04;66.17
35806;BME280;21925;44.608;11.580;2022-07-24T03:31:32;101521.28;;;27.00;66.39
35806;BME280;21925;44.608;11.580;2022-07-24T03:33:58;101537.56;;;27.08;66.53
35806;BME280;21925;44.608;11.580;2022-07-24T03:36:23;101533.16;;;27.07;67.15
35806;BME280;21925;44.608;11.580;2022-07-24T03:38:49;101540.91;;;27.19;66.36
35806;BME280;21925;44.608;11.580;2022-07-24T03:41:14;101521.56;;;27.05;65.95
35806;BME280;21925;44.608;11.580;2022-07-24T03:43:40;101508.91;;;27.13;64.67
35806;BME280;21925;44.608;11.580;2022-07-24T03:46:05;101524.63;;;27.11;65.68
35806;BME280;21925;44.608;11.580;2022-07-24T03:48:31;101525.06;;;27.09;65.50
35806;BME280;21925;44.608;11.580;2022-07-24T03:50:57;101523.28;;;26.83;65.68
35806;BME280;21925;44.608;11.580;2022-07-24T03:53:22;101536.75;;;26.92;65.28
35806;BME280;21925;44.608;11.580;2022-07-24T03:55:47;101538.16;;;27.00;64.34
35806;BME280;21925;44.608;11.580;2022-07-24T03:58:13;101542.97;;;26.99;64.69
35806;BME280;21925;44.608;11.580;2022-07-24T04:00:38;101556.69;;;27.01;64.42
35806;BME280;21925;44.608;11.580;2022-07-24T04:03:04;101528.69;;;26.59;66.71
35806;BME280;21925;44.608;11.580;2022-07-24T04:05:30;101547.88;;;26.63;66.26
35806;BME280;21925;44.608;11.580;2022-07-24T04:07:55;101538.91;;;26.33;67.75
35806;BME280;21925;44.608;11.580;2022-07-24T04:10:21;101557.28;;;26.38;67.84
35806;BME280;21925;44.608;11.580;2022-07-24T04:12:46;101547.19;;;26.21;67.94
35806;BME280;21925;44.608;11.580;2022-07-24T04:15:12;101556.69;;;26.27;67.60
35806;BME280;21925;44.608;11.580;2022-07-24T04:17:39;101555.03;;;26.29;67.49
35806;BME280;21925;44.608;11.580;2022-07-24T04:20:06;101564.66;;;26.32;66.91
35806;BME280;21925;44.608;11.580;2022-07-24T04:22:32;101554.03;;;26.20;67.28
35806;BME280;21925;44.608;11.580;2022-07-24T04:24:58;101567.34;;;26.39;68.05
35806;BME280;21925;44.608;11.580;2022-07-24T04:27:23;101567.56;;;26.09;68.33
35806;BME280;21925;44.608;11.580;2022-07-24T04:29:49;101583.69;;;26.24;68.51
35806;BME280;21925;44.608;11.580;2022-07-24T04:32:14;101558.00;;;26.03;69.01
35806;BME280;21925;44.608;11.580;2022-07-24T04:34:40;101555.84;;;26.30;68.17
35806;BME280;21925;44.608;11.580;2022-07-24T04:37:05;101571.78;;;26.36;68.48
35806;BME280;21925;44.608;11.580;2022-07-24T04:39:31;101565.50;;;26.29;68.81
35806;BME280;21925;44.608;11.580;2022-07-24T04:41:56;101566.03;;;26.04;70.15
35806;BME280;21925;44.608;11.580;2022-07-24T04:44:22;101577.44;;;26.17;69.80
35806;BME280;21925;44.608;11.580;2022-07-24T04:46:47;101579.63;;;26.25;69.56
35806;BME280;21925;44.608;11.580;2022-07-24T04:49:13;101571.66;;;26.43;69.04
35806;BME280;21925;44.608;11.580;2022-07-24T04:51:38;101578.63;;;26.55;68.90
35806;BME280;21925;44.608;11.580;2022-07-24T04:54:04;101570.19;;;26.55;69.21
35806;BME280;21925;44.608;11.580;2022-07-24T04:56:29;101583.81;;;26.56;68.83
35806;BME280;21925;44.608;11.580;2022-07-24T04:58:58;101583.25;;;26.64;68.27
35806;BME280;21925;44.608;11.580;2022-07-24T05:01:24;101573.22;;;26.63;68.20
35806;BME280;21925;44.608;11.580;2022-07-24T05:03:50;101581.66;;;26.63;69.31
35806;BME280;21925;44.608;11.580;2022-07-24T05:06:16;101583.53;;;26.86;68.48
35806;BME280;21925;44.608;11.580;2022-07-24T05:08:41;101584.53;;;26.95;67.73
35806;BME280;21925;44.608;11.580;2022-07-24T05:11:07;101578.53;;;26.93;67.47
35806;BME280;21925;44.608;11.580;2022-07-24T05:13:32;101586.84;;;27.00;67.44
35806;BME280;21925;44.608;11.580;2022-07-24T05:15:58;101582.41;;;26.99;67.73
35806;BME280;21925;44.608;11.580;2022-07-24T05:18:23;101586.34;;;27.21;67.15
35806;BME280;21925;44.608;11.580;2022-07-24T05:20:49;101570.38;;;27.31;66.57
35806;BME280;21925;44.608;11.580;2022-07-24T05:23:15;101592.03;;;27.49;67.06
35806;BME280;21925;44.608;11.580;2022-07-24T05:25:41;101585.09;;;27.54;66.51
35806;BME280;21925;44.608;11.580;2022-07-24T05:28:06;101584.38;;;27.66;66.51
35806;BME280;21925;44.608;11.580;2022-07-24T05:30:32;101587.97;;;27.82;66.27
35806;BME280;21925;44.608;11.580;2022-07-24T05:32:58;101583.72;;;27.90;65.36
35806;BME280;21925;44.608;11.580;2022-07-24T05:35:23;101585.00;;;28.02;64.21
35806;BME280;21925;44.608;11.580;2022-07-24T05:37:49;101584.34;;;28.10;64.10
35806;BME280;21925;44.608;11.580;2022-07-24T05:40:15;101600.09;;;28.24;63.83
35806;BME280;21925;44.608;11.580;2022-07-24T05:42:40;101604.75;;;28.30;63.74
35806;BME280;21925;44.608;11.580;2022-07-24T05:45:06;101601.47;;;28.31;63.32
35806;BME280;21925;44.608;11.580;2022-07-24T05:47:38;101608.16;;;28.37;63.44
35806;BME280;21925;44.608;11.580;2022-07-24T05:50:12;101596.31;;;28.42;63.88
35806;BME280;21925;44.608;11.580;2022-07-24T05:52:39;101615.28;;;28.54;63.99
35806;BME280;21925;44.608;11.580;2022-07-24T05:55:05;101602.53;;;28.50;63.69
35806;BME280;21925;44.608;11.580;2022-07-24T05:57:31;101600.63;;;28.59;62.77
35806;BME280;21925;44.608;11.580;2022-07-24T05:59:56;101609.03;;;28.75;63.78
35806;BME280;21925;44.608;11.580;2022-07-24T06:02:22;101608.16;;;28.91;62.69
35806;BME280;21925;44.608;11.580;2022-07-24T06:04:47;101611.97;;;28.84;61.33
35806;BME280;21925;44.608;11.580;2022-07-24T06:07:13;101606.00;;;28.95;61.24
35806;BME280;21925;44.608;11.580;2022-07-24T06:09:42;101620.34;;;29.00;61.12
35806;BME280;21925;44.608;11.580;2022-07-24T06:12:08;101620.13;;;29.32;61.00
35806;BME280;21925;44.608;11.580;2022-07-24T06:14:37;101609.13;;;29.34;60.31
35806;BME280;21925;44.608;11.580;2022-07-24T06:17:04;101615.38;;;29.29;59.84
35806;BME280;21925;44.608;11.580;2022-07-24T06:19:30;101627.16;;;29.40;59.77
35806;BME280;21925;44.608;11.580;2022-07-24T06:21:56;101621.78;;;29.54;59.54
35806;BME280;21925;44.608;11.580;2022-07-24T06:24:22;101621.34;;;29.56;59.54
35806;BME280;21925;44.608;11.580;2022-07-24T06:26:49;101622.66;;;29.76;59.42
35806;BME280;21925;44.608;11.580;2022-07-24T06:29:15;101624.09;;;29.81;58.78
35806;BME280;21925;44.608;11.580;2022-07-24T06:31:41;101628.50;;;29.94;59.25
35806;BME280;21925;44.608;11.580;2022-07-24T06:34:08;101635.06;;;29.91;59.50
35806;BME280;21925;44.608;11.580;2022-07-24T06:36:37;101591.72;;;29.60;58.10
35806;BME280;21925;44.608;11.580;2022-07-24T06:39:03;101626.81;;;29.97;58.31
35806;BME280;21925;44.608;11.580;2022-07-24T06:41:29;101608.25;;;29.96;59.01
35806;BME280;21925;44.608;11.580;2022-07-24T06:43:54;101649.69;;;30.11;65.07
35806;BME280;21925;44.608;11.580;2022-07-24T06:46:20;101645.22;;;30.22;65.13
35806;BME280;21925;44.608;11.580;2022-07-24T06:48:45;101640.50;;;30.19;64.20
35806;BME280;21925;44.608;11.580;2022-07-24T06:51:11;101632.94;;;30.38;65.94
35806;BME280;21925;44.608;11.580;2022-07-24T06:53:36;101636.44;;;30.63;68.12
35806;BME280;21925;44.608;11.580;2022-07-24T06:56:02;101624.72;;;31.04;66.65
35806;BME280;21925;44.608;11.580;2022-07-24T06:58:28;101626.66;;;31.16;66.14
35806;BME280;21925;44.608;11.580;2022-07-24T07:00:54;101606.66;;;31.10;65.12
35806;BME280;21925;44.608;11.580;2022-07-24T07:03:19;101600.69;;;30.87;66.61
35806;BME280;21925;44.608;11.580;2022-07-24T07:05:45;101622.94;;;31.37;65.66
35806;BME280;21925;44.608;11.580;2022-07-24T07:08:10;101614.78;;;31.48;65.32
35806;BME280;21925;44.608;11.580;2022-07-24T07:10:36;101637.53;;;31.57;65.46
35806;BME280;21925;44.608;11.580;2022-07-24T07:13:01;101633.91;;;31.65;65.83
35806;BME280;21925;44.608;11.580;2022-07-24T07:15:27;101641.00;;;31.61;66.19
35806;BME280;21925;44.608;11.580;2022-07-24T07:17:53;101621.81;;;31.82;66.14
35806;BME280;21925;44.608;11.580;2022-07-24T07:20:18;101616.59;;;31.90;65.43
35806;BME280;21925;44.608;11.580;2022-07-24T07:22:44;101626.22;;;31.83;65.87
35806;BME280;21925;44.608;11.580;2022-07-24T07:25:10;101616.66;;;32.26;65.70
35806;BME280;21925;44.608;11.580;2022-07-24T07:27:36;101613.59;;;32.65;65.09
35806;BME280;21925;44.608;11.580;2022-07-24T07:30:03;101621.66;;;32.57;63.94
35806;BME280;21925;44.608;11.580;2022-07-24T07:32:29;101620.97;;;32.80;63.71
35806;BME280;21925;44.608;11.580;2022-07-24T07:34:55;101619.25;;;32.74;64.75
35806;BME280;21925;44.608;11.580;2022-07-24T07:37:21;101607.47;;;32.99;63.44
35806;BME280;21925;44.608;11.580;2022-07-24T07:39:47;101624.53;;;32.99;63.66
35806;BME280;21925;44.608;11.580;2022-07-24T07:42:12;101614.88;;;33.14;63.41
35806;BME280;21925;44.608;11.580;2022-07-24T07:44:38;101616.25;;;33.19;63.35
35806;BME280;21925;44.608;11.580;2022-07-24T07:47:04;101619.56;;;33.49;62.99
35806;BME280;21925;44.608;11.580;2022-07-24T07:49:29;101625.69;;;33.25;63.91
35806;BME280;21925;44.608;11.580;2022-07-24T07:51:55;101618.88;;;33.63;62.16
35806;BME280;21925;44.608;11.580;2022-07-24T07:54:21;101622.53;;;33.78;63.24
35806;BME280;21925;44.608;11.580;2022-07-24T07:56:47;101621.53;;;33.90;62.62
35806;BME280;21925;44.608;11.580;2022-07-24T07:59:12;101625.25;;;33.49;62.86
35806;BME280;21925;44.608;11.580;2022-07-24T08:01:38;101621.72;;;33.87;61.76
35806;BME280;21925;44.608;11.580;2022-07-24T08:04:04;101619.47;;;34.28;61.19
35806;BME280;21925;44.608;11.580;2022-07-24T08:06:30;101617.78;;;33.84;61.83
35806;BME280;21925;44.608;11.580;2022-07-24T08:08:56;101624.56;;;34.24;62.02
35806;BME280;21925;44.608;11.580;2022-07-24T08:11:21;101616.78;;;34.77;60.44
35806;BME280;21925;44.608;11.580;2022-07-24T08:13:47;101627.88;;;34.61;59.47
35806;BME280;21925;44.608;11.580;2022-07-24T08:16:13;101610.47;;;35.36;59.16
35806;BME280;21925;44.608;11.580;2022-07-24T08:18:38;101615.94;;;35.20;59.06
35806;BME280;21925;44.608;11.580;2022-07-24T08:21:05;101614.47;;;35.44;58.51
35806;BME280;21925;44.608;11.580;2022-07-24T08:23:30;101623.06;;;35.64;58.11
35806;BME280;21925;44.608;11.580;2022-07-24T08:25:56;101613.78;;;35.49;58.38
35806;BME280;21925;44.608;11.580;2022-07-24T08:28:22;101623.53;;;35.08;58.63
35806;BME280;21925;44.608;11.580;2022-07-24T08:30:51;101615.44;;;35.21;58.40
35806;BME280;21925;44.608;11.580;2022-07-24T08:33:17;101608.81;;;35.84;57.82
35806;BME280;21925;44.608;11.580;2022-07-24T08:35:43;101622.72;;;36.87;56.00
35806;BME280;21925;44.608;11.580;2022-07-24T08:38:08;101623.53;;;35.97;55.86
35806;BME280;21925;44.608;11.580;2022-07-24T08:40:36;101627.72;;;35.27;57.47
35806;BME280;21925;44.608;11.580;2022-07-24T08:43:07;101624.22;;;35.72;56.60
35806;BME280;21925;44.608;11.580;2022-07-24T08:45:35;101631.69;;;36.49;55.99
35806;BME280;21925;44.608;11.580;2022-07-24T08:48:06;101627.03;;;36.52;54.92
35806;BME280;21925;44.608;11.580;2022-07-24T08:50:33;101618.66;;;36.03;55.83
35806;BME280;21925;44.608;11.580;2022-07-24T08:52:59;101621.00;;;36.24;55.73
35806;BME280;21925;44.608;11.580;2022-07-24T08:55:29;101626.97;;;36.01;56.13
35806;BME280;21925;44.608;11.580;2022-07-24T08:57:59;101622.03;;;36.47;55.61
35806;BME280;21925;44.608;11.580;2022-07-24T09:00:27;101625.81;;;37.56;53.54
35806;BME280;21925;44.608;11.580;2022-07-24T09:02:53;101623.16;;;37.11;53.44
35806;BME280;21925;44.608;11.580;2022-07-24T09:05:19;101622.81;;;36.72;53.75
35806;BME280;21925;44.608;11.580;2022-07-24T09:08:34;101623.25;;;37.27;52.98
35806;BME280;21925;44.608;11.580;2022-07-24T09:11:02;101628.59;;;37.09;53.40
35806;BME280;21925;44.608;11.580;2022-07-24T09:13:30;101627.69;;;36.92;54.36
35806;BME280;21925;44.608;11.580;2022-07-24T09:19:03;101627.00;;;37.80;51.93
35806;BME280;21925;44.608;11.580;2022-07-24T09:21:33;101621.25;;;37.33;52.21
35806;BME280;21925;44.608;11.580;2022-07-24T09:23:59;101619.00;;;37.48;51.64
35806;BME280;21925;44.608;11.580;2022-07-24T09:29:14;101623.00;;;37.25;52.72
35806;BME280;21925;44.608;11.580;2022-07-24T09:34:21;101615.81;;;37.77;50.49
35806;BME280;21925;44.608;11.580;2022-07-24T09:37:03;101625.44;;;38.54;50.05
35806;BME280;21925;44.608;11.580;2022-07-24T09:39:34;101621.53;;;38.90;48.90
35806;BME280;21925;44.608;11.580;2022-07-24T09:42:08;101609.44;;;39.73;48.01
35806;BME280;21925;44.608;11.580;2022-07-24T09:44:35;101610.81;;;39.34;47.45
35806;BME280;21925;44.608;11.580;2022-07-24T09:47:06;101611.34;;;39.49;47.00
35806;BME280;21925;44.608;11.580;2022-07-24T09:49:34;101610.28;;;39.52;46.80
35806;BME280;21925;44.608;11.580;2022-07-24T09:52:34;101621.59;;;37.99;46.29
35806;BME280;21925;44.608;11.580;2022-07-24T09:55:01;101616.03;;;38.53;47.59
35806;BME280;21925;44.608;11.580;2022-07-24T09:57:29;101623.88;;;38.58;48.30
35806;BME280;21925;44.608;11.580;2022-07-24T10:00:02;101610.00;;;39.55;45.63
35806;BME280;21925;44.608;11.580;2022-07-24T10:02:31;101611.31;;;39.60;46.68
35806;BME280;21925;44.608;11.580;2022-07-24T10:05:00;101612.16;;;39.17;45.64
35806;BME280;21925;44.608;11.580;2022-07-24T10:07:28;101610.34;;;38.97;45.19
35806;BME280;21925;44.608;11.580;2022-07-24T10:09:56;101603.09;;;39.97;45.21
35806;BME280;21925;44.608;11.580;2022-07-24T10:12:24;101611.72;;;39.86;43.99
35806;BME280;21925;44.608;11.580;2022-07-24T10:14:53;101603.00;;;41.17;44.51
35806;BME280;21925;44.608;11.580;2022-07-24T10:17:21;101607.00;;;39.94;44.09
35806;BME280;21925;44.608;11.580;2022-07-24T10:19:49;101599.88;;;39.49;45.03
35806;BME280;21925;44.608;11.580;2022-07-24T10:22:21;101598.25;;;40.15;44.10
35806;BME280;21925;44.608;11.580;2022-07-24T10:24:58;101594.88;;;40.57;45.61
35806;BME280;21925;44.608;11.580;2022-07-24T10:27:27;101598.97;;;41.02;44.49
35806;BME280;21925;44.608;11.580;2022-07-24T10:29:54;101598.34;;;40.85;43.47
35806;BME280;21925;44.608;11.580;2022-07-24T10:32:22;101587.75;;;40.23;42.78
35806;BME280;21925;44.608;11.580;2022-07-24T11:03:54;101568.22;;;42.55;39.14
35806;BME280;21925;44.608;11.580;2022-07-24T11:06:40;101566.38;;;42.02;38.80
35806;BME280;21925;44.608;11.580;2022-07-24T11:09:10;101568.25;;;41.81;39.83
35806;BME280;21925;44.608;11.580;2022-07-24T11:20:11;101558.25;;;41.64;39.35
35806;BME280;21925;44.608;11.580;2022-07-24T11:22:40;101555.09;;;41.20;39.48
35806;BME280;21925;44.608;11.580;2022-07-24T11:25:08;101547.94;;;41.50;38.42
35806;BME280;21925;44.608;11.580;2022-07-24T11:27:42;101550.00;;;41.74;38.61
35806;BME280;21925;44.608;11.580;2022-07-24T11:30:09;101549.91;;;42.53;38.38
35806;BME280;21925;44.608;11.580;2022-07-24T11:32:36;101541.63;;;41.76;38.61
35806;BME280;21925;44.608;11.580;2022-07-24T11:35:02;101536.50;;;41.21;38.54
35806;BME280;21925;44.608;11.580;2022-07-24T11:37:30;101538.81;;;41.88;39.43
35806;BME280;21925;44.608;11.580;2022-07-24T11:39:56;101523.06;;;41.89;38.57
35806;BME280;21925;44.608;11.580;2022-07-24T11:42:21;101530.03;;;42.31;38.81
35806;BME280;21925;44.608;11.580;2022-07-24T11:44:49;101537.25;;;41.87;38.09
35806;BME280;21925;44.608;11.580;2022-07-24T11:47:24;101533.03;;;41.70;37.75
35806;BME280;21925;44.608;11.580;2022-07-24T11:49:50;101527.34;;;42.20;38.04
35806;BME280;21925;44.608;11.580;2022-07-24T11:52:24;101512.78;;;41.57;37.97
35806;BME280;21925;44.608;11.580;2022-07-24T11:54:53;101506.19;;;41.62;37.66
35806;BME280;21925;44.608;11.580;2022-07-24T11:57:33;101515.91;;;41.77;38.05
35806;BME280;21925;44.608;11.580;2022-07-24T11:59:59;101510.16;;;42.77;37.08
35806;BME280;21925;44.608;11.580;2022-07-24T12:02:25;101507.31;;;43.29;36.33
35806;BME280;21925;44.608;11.580;2022-07-24T12:04:52;101497.72;;;43.46;36.20
35806;BME280;21925;44.608;11.580;2022-07-24T12:07:21;101497.28;;;42.47;35.74
35806;BME280;21925;44.608;11.580;2022-07-24T12:09:58;101486.97;;;43.08;36.64
35806;BME280;21925;44.608;11.580;2022-07-24T12:12:29;101489.94;;;42.90;35.86
35806;BME280;21925;44.608;11.580;2022-07-24T12:15:07;101496.88;;;43.51;38.94
35806;BME280;21925;44.608;11.580;2022-07-24T12:17:35;101495.72;;;42.90;38.76
35806;BME280;21925;44.608;11.580;2022-07-24T12:20:24;101482.78;;;43.22;39.31
35806;BME280;21925;44.608;11.580;2022-07-24T12:22:50;101494.41;;;43.55;38.41
35806;BME280;21925;44.608;11.580;2022-07-24T12:25:16;101486.84;;;43.40;37.50
35806;BME280;21925;44.608;11.580;2022-07-24T12:27:43;101487.47;;;43.71;37.68
35806;BME280;21925;44.608;11.580;2022-07-24T12:30:26;101488.88;;;43.19;37.29
35806;BME280;21925;44.608;11.580;2022-07-24T12:33:05;101477.13;;;43.89;37.19
35806;BME280;21925;44.608;11.580;2022-07-24T12:35:33;101475.09;;;43.84;37.53
35806;BME280;21925;44.608;11.580;2022-07-24T12:38:02;101463.88;;;43.80;37.25
35806;BME280;21925;44.608;11.580;2022-07-24T12:40:34;101476.78;;;43.33;37.43
35806;BME280;21925;44.608;11.580;2022-07-24T12:43:07;101470.19;;;43.58;38.93
35806;BME280;21925;44.608;11.580;2022-07-24T12:45:33;101467.81;;;44.03;38.38
35806;BME280;21925;44.608;11.580;2022-07-24T12:48:10;101462.78;;;44.37;36.34
35806;BME280;21925;44.608;11.580;2022-07-24T12:50:39;101458.09;;;43.80;37.13
35806;BME280;21925;44.608;11.580;2022-07-24T12:53:06;101464.44;;;43.46;38.79
35806;BME280;21925;44.608;11.580;2022-07-24T12:55:33;101452.25;;;43.73;38.67
35806;BME280;21925;44.608;11.580;2022-07-24T12:58:01;101453.22;;;43.29;38.41
35806;BME280;21925;44.608;11.580;2022-07-24T13:00:27;101452.47;;;43.29;38.78
35806;BME280;21925;44.608;11.580;2022-07-24T13:02:53;101456.16;;;43.62;38.93
35806;BME280;21925;44.608;11.580;2022-07-24T13:05:39;101446.56;;;43.08;37.24
35806;BME280;21925;44.608;11.580;2022-07-24T13:08:05;101449.34;;;42.88;38.68
35806;BME280;21925;44.608;11.580;2022-07-24T13:10:31;101438.00;;;42.90;38.42
35806;BME280;21925;44.608;11.580;2022-07-24T13:12:56;101442.97;;;42.51;39.51
35806;BME280;21925;44.608;11.580;2022-07-24T13:15:22;101438.13;;;43.10;38.47
35806;BME280;21925;44.608;11.580;2022-07-24T13:17:48;101436.47;;;43.28;38.22
35806;BME280;21925;44.608;11.580;2022-07-24T13:20:13;101437.78;;;43.27;37.98
35806;BME280;21925;44.608;11.580;2022-07-24T13:22:39;101430.22;;;42.98;37.31
35806;BME280;21925;44.608;11.580;2022-07-24T13:25:05;101437.38;;;42.97;38.23
35806;BME280;21925;44.608;11.580;2022-07-24T13:27:31;101429.13;;;43.27;38.02
35806;BME280;21925;44.608;11.580;2022-07-24T13:29:57;101433.97;;;43.45;37.07